createdAt,value
2022-12-22T00:01:06.902Z,55.75
2022-12-22T00:03:58.353Z,53.80
2022-12-22T00:06:53.330Z,55.03
2022-12-22T00:09:48.259Z,54.97
2022-12-22T00:12:40.651Z,54.15
2022-12-22T00:15:38.549Z,60.28
2022-12-22T00:18:40.726Z,58.00
2022-12-22T00:21:37.202Z,59.10
2022-12-22T00:24:30.792Z,61.17
2022-12-22T00:27:27.803Z,59.38
2022-12-22T00:30:22.233Z,55.47
2022-12-22T00:33:13.145Z,55.30
2022-12-22T00:36:05.239Z,58.55
2022-12-22T00:38:56.607Z,54.13
2022-12-22T00:41:47.979Z,57.28
2022-12-22T00:44:44.821Z,56.67
2022-12-22T00:47:45.771Z,56.30
2022-12-22T00:50:41.469Z,57.08
2022-12-22T00:53:35.487Z,57.28
2022-12-22T00:56:25.513Z,55.97
2022-12-22T00:59:20.624Z,54.83
2022-12-22T01:02:14.377Z,57.40
2022-12-22T01:05:04.171Z,58.03
2022-12-22T01:07:57.507Z,58.10
2022-12-22T01:10:46.811Z,56.47
2022-12-22T01:13:41.057Z,58.25
2022-12-22T01:16:36.425Z,56.70
2022-12-22T01:19:31.013Z,71.78
2022-12-22T01:22:27.820Z,63.38
2022-12-22T01:25:29.637Z,59.33
2022-12-22T01:28:25.409Z,59.72
2022-12-22T01:31:37.029Z,59.15
2022-12-22T01:34:31.176Z,60.33
2022-12-22T01:37:30.478Z,58.17
2022-12-22T01:40:33.173Z,57.38
2022-12-22T01:43:44.095Z,58.17
2022-12-22T01:46:41.406Z,58.22
2022-12-22T01:49:47.427Z,58.47
2022-12-22T01:52:41.414Z,54.28
2022-12-22T01:58:21.228Z,54.72
2022-12-22T02:01:17.695Z,51.95
2022-12-22T02:04:15.248Z,53.13
2022-12-22T02:07:12.487Z,52.53
2022-12-22T02:10:18.210Z,51.80
2022-12-22T02:13:44.731Z,55.13
2022-12-22T02:16:58.311Z,53.00
2022-12-22T02:20:04.156Z,39.53
2022-12-22T02:23:20.130Z,53.75
2022-12-22T02:26:37.197Z,53.05
2022-12-22T02:32:23.233Z,55.22
2022-12-22T02:35:16.548Z,55.38
2022-12-22T02:38:38.281Z,53.38
2022-12-22T02:41:48.067Z,53.58
2022-12-22T02:45:23.424Z,53.72
2022-12-22T02:48:27.336Z,54.25
2022-12-22T02:51:29.216Z,54.55
2022-12-22T02:54:22.365Z,55.08
2022-12-22T02:57:08.038Z,55.20
2022-12-22T02:59:56.091Z,55.35
2022-12-22T03:02:49.454Z,55.40
2022-12-22T03:05:41.022Z,52.63
2022-12-22T03:08:37.207Z,52.33
2022-12-22T03:11:33.757Z,52.20
2022-12-22T03:14:24.992Z,55.83
2022-12-22T03:17:13.178Z,52.83
2022-12-22T03:20:12.323Z,53.97
2022-12-22T03:23:14.413Z,52.60
2022-12-22T03:25:53.296Z,56.97
2022-12-22T03:28:36.868Z,54.70
2022-12-22T03:31:09.913Z,53.00
2022-12-22T03:33:47.534Z,54.08
2022-12-22T03:36:22.618Z,57.97
2022-12-22T03:38:54.917Z,59.13
2022-12-22T03:41:48.477Z,55.17
2022-12-22T03:44:42.523Z,58.42
2022-12-22T03:49:57.415Z,63.97
2022-12-22T03:52:37.991Z,64.18
2022-12-22T03:55:24.837Z,61.55
2022-12-22T03:58:02.570Z,61.10
2022-12-22T04:00:40.806Z,62.80
2022-12-22T04:03:18.465Z,57.47
2022-12-22T04:05:53.783Z,61.92
2022-12-22T04:08:32.202Z,59.65
2022-12-22T04:11:23.446Z,62.42
2022-12-22T04:13:57.665Z,59.67
2022-12-22T04:16:40.787Z,60.10
2022-12-22T04:19:18.687Z,59.80
2022-12-22T04:21:51.709Z,62.25
2022-12-22T04:24:24.425Z,58.05
2022-12-22T04:26:57.086Z,61.28
2022-12-22T04:29:37.520Z,59.53
2022-12-22T04:32:23.855Z,58.65
2022-12-22T04:34:58.801Z,57.58
2022-12-22T04:37:34.915Z,57.72
2022-12-22T04:40:10.135Z,54.38
2022-12-22T04:42:48.372Z,58.13
2022-12-22T04:45:30.572Z,59.03
2022-12-22T04:48:11.949Z,55.70
2022-12-22T04:50:55.592Z,56.65
2022-12-22T04:53:34.205Z,59.58
2022-12-22T04:56:13.712Z,62.58
2022-12-22T04:58:49.112Z,57.00
2022-12-22T05:01:32.117Z,55.20
2022-12-22T05:04:14.469Z,60.55
2022-12-22T05:07:00.312Z,59.30
2022-12-22T05:09:44.189Z,62.33
2022-12-22T05:12:35.247Z,57.55
2022-12-22T05:15:13.697Z,58.88
2022-12-22T05:17:49.543Z,58.47
2022-12-22T05:20:27.395Z,55.95
2022-12-22T05:23:08.859Z,61.35
2022-12-22T05:25:40.965Z,59.75
2022-12-22T05:28:19.116Z,58.58
2022-12-22T05:30:59.936Z,60.33
2022-12-22T05:33:45.070Z,61.70
2022-12-22T05:36:30.899Z,57.47
2022-12-22T05:39:17.428Z,58.97
2022-12-22T05:41:49.446Z,59.25
2022-12-22T05:44:24.735Z,57.55
2022-12-22T05:47:00.353Z,58.83
2022-12-22T05:49:41.267Z,57.35
2022-12-22T05:52:19.043Z,60.35
2022-12-22T05:54:58.545Z,59.03
2022-12-22T05:57:36.145Z,61.08
2022-12-22T06:00:20.053Z,61.80
2022-12-22T06:02:58.849Z,69.43
2022-12-22T06:05:41.178Z,73.35
2022-12-22T06:08:20.435Z,67.40
2022-12-22T06:11:05.240Z,65.03
2022-12-22T06:13:42.508Z,65.03
2022-12-22T06:16:21.088Z,64.22
2022-12-22T06:18:53.342Z,69.32
2022-12-22T06:21:34.114Z,77.00
2022-12-22T06:24:15.190Z,66.15
2022-12-22T06:26:58.636Z,68.50
2022-12-22T06:29:43.522Z,63.28
2022-12-22T06:32:33.639Z,62.63
2022-12-22T06:35:11.648Z,60.05
2022-12-22T06:37:44.172Z,59.80
2022-12-22T06:40:25.837Z,60.55
2022-12-22T06:43:09.782Z,59.53
2022-12-22T06:45:45.845Z,63.33
2022-12-22T06:48:26.587Z,67.57
2022-12-22T06:51:01.633Z,64.75
2022-12-22T06:53:33.841Z,69.07
2022-12-22T06:56:11.782Z,67.15
2022-12-22T06:58:44.071Z,66.47
2022-12-22T07:01:19.856Z,62.10
2022-12-22T07:03:58.766Z,65.63
2022-12-22T07:06:39.605Z,62.38
2022-12-22T07:09:18.454Z,63.47
2022-12-22T07:11:56.064Z,62.35
2022-12-22T07:14:33.877Z,57.85
2022-12-22T07:17:15.132Z,60.50
2022-12-22T07:19:50.480Z,61.33
2022-12-22T07:22:29.529Z,59.45
2022-12-22T07:25:11.318Z,58.83
2022-12-22T07:27:53.363Z,56.78
2022-12-22T07:30:30.844Z,61.55
2022-12-22T07:33:08.749Z,63.28
2022-12-22T07:35:46.287Z,60.25
2022-12-22T07:38:29.477Z,61.95
2022-12-22T07:41:31.308Z,65.70
2022-12-22T07:44:15.616Z,60.60
2022-12-22T07:46:50.646Z,60.22
2022-12-22T07:49:46.994Z,60.15
2022-12-22T07:52:21.899Z,59.25
2022-12-22T07:55:08.471Z,57.58
2022-12-22T07:57:51.664Z,56.55
2022-12-22T08:00:30.281Z,64.68
2022-12-22T08:03:04.762Z,58.80
2022-12-22T08:05:48.505Z,52.42
2022-12-22T08:08:23.873Z,56.50
2022-12-22T08:11:05.068Z,62.70
2022-12-22T08:13:45.953Z,58.58
2022-12-22T08:16:29.960Z,59.55
2022-12-22T08:19:18.080Z,63.97
2022-12-22T08:21:53.321Z,62.10
2022-12-22T08:24:31.460Z,63.50
2022-12-22T08:27:25.864Z,60.97
2022-12-22T08:30:02.229Z,60.47
2022-12-22T08:32:40.739Z,61.83
2022-12-22T08:35:23.853Z,62.75
2022-12-22T08:37:59.214Z,64.30
2022-12-22T08:40:43.253Z,63.70
2022-12-22T08:43:17.087Z,62.88
2022-12-22T08:45:55.464Z,67.35
2022-12-22T08:48:34.192Z,68.65
2022-12-22T08:51:24.632Z,72.15
2022-12-22T08:54:05.420Z,68.60
2022-12-22T08:56:44.810Z,67.82
2022-12-22T08:59:20.065Z,58.55
2022-12-22T09:02:06.587Z,58.95
2022-12-22T09:04:38.041Z,52.35
2022-12-22T09:07:27.196Z,56.22
2022-12-22T09:09:59.492Z,54.47
2022-12-22T09:12:40.022Z,53.97
2022-12-22T09:15:14.927Z,53.75
2022-12-22T09:17:50.468Z,58.80
2022-12-22T09:20:30.397Z,56.08
2022-12-22T09:23:08.843Z,51.97
2022-12-22T09:25:52.263Z,47.30
2022-12-22T09:28:30.511Z,45.92
2022-12-22T09:31:09.489Z,49.63
2022-12-22T09:33:52.415Z,48.47
2022-12-22T09:36:37.906Z,49.20
2022-12-22T09:39:26.910Z,48.15
2022-12-22T09:42:14.241Z,47.15
2022-12-22T09:44:50.806Z,50.80
2022-12-22T09:47:55.489Z,53.55
2022-12-22T09:50:38.604Z,53.58
2022-12-22T09:53:22.925Z,54.45
2022-12-22T09:56:08.805Z,55.28
2022-12-22T09:58:59.807Z,59.33
2022-12-22T10:02:00.743Z,61.15
2022-12-22T10:04:48.761Z,55.78
2022-12-22T10:07:40.203Z,56.63
2022-12-22T10:10:29.107Z,55.92
2022-12-22T10:13:06.662Z,60.70
2022-12-22T10:15:54.997Z,59.25
2022-12-22T10:18:35.054Z,61.00
2022-12-22T10:21:15.837Z,63.95
2022-12-22T10:23:53.413Z,63.25
2022-12-22T10:26:41.179Z,63.92
2022-12-22T10:29:16.738Z,63.05
2022-12-22T10:32:02.088Z,64.15
2022-12-22T10:34:38.095Z,59.70
2022-12-22T10:37:25.345Z,59.25
2022-12-22T10:40:15.750Z,61.63
2022-12-22T10:43:02.212Z,60.65
2022-12-22T10:45:52.821Z,58.95
2022-12-22T10:48:37.424Z,58.67
2022-12-22T10:51:19.755Z,57.90
2022-12-22T10:54:06.657Z,57.45
2022-12-22T10:57:04.556Z,59.85
2022-12-22T10:59:59.196Z,58.33
2022-12-22T11:02:38.208Z,57.80
2022-12-22T11:05:29.159Z,60.97
2022-12-22T11:08:23.029Z,59.55
2022-12-22T11:11:11.325Z,65.65
2022-12-22T11:13:51.876Z,63.40
2022-12-22T11:16:45.994Z,64.50
2022-12-22T11:22:25.195Z,61.38
2022-12-22T11:25:23.998Z,62.33
2022-12-22T11:28:11.005Z,64.15
2022-12-22T11:31:05.621Z,61.25
2022-12-22T11:33:52.331Z,60.92
2022-12-22T11:37:00.919Z,61.60
2022-12-22T11:39:59.263Z,58.25
2022-12-22T11:43:14.032Z,63.35
2022-12-22T11:46:18.779Z,59.63
2022-12-22T11:49:21.740Z,60.33
2022-12-22T11:52:31.679Z,59.13
2022-12-22T11:55:30.800Z,61.67
2022-12-22T11:58:21.810Z,61.40
2022-12-22T12:01:20.392Z,63.92
2022-12-22T12:04:27.400Z,64.32
2022-12-22T12:07:37.994Z,65.90
2022-12-22T12:10:25.126Z,62.63
2022-12-22T12:13:26.452Z,62.22
2022-12-22T12:16:29.821Z,59.50
2022-12-22T12:19:36.524Z,64.45
2022-12-22T12:22:32.034Z,60.67
2022-12-22T12:25:31.765Z,63.65
2022-12-22T12:28:42.814Z,63.72
2022-12-22T12:31:26.956Z,62.95
2022-12-22T12:34:03.855Z,59.40
2022-12-22T12:37:04.781Z,62.85
2022-12-22T12:39:58.975Z,69.50
2022-12-22T12:45:49.185Z,65.22
2022-12-22T12:48:36.593Z,66.28
2022-12-22T12:51:48.930Z,62.17
2022-12-22T12:54:41.608Z,64.03
2022-12-22T12:57:47.955Z,66.07
2022-12-22T13:00:59.084Z,66.03
2022-12-22T13:06:52.087Z,62.20
2022-12-22T13:09:50.078Z,66.30
2022-12-22T13:13:08.900Z,61.05
2022-12-22T13:15:50.538Z,63.00
2022-12-22T13:18:58.670Z,72.25
2022-12-22T13:21:53.437Z,82.75
2022-12-22T13:24:35.856Z,70.40
2022-12-22T13:27:15.899Z,68.22
2022-12-22T13:29:56.182Z,65.68
2022-12-22T13:32:35.974Z,86.07
2022-12-22T13:35:33.036Z,77.78
2022-12-22T13:38:35.258Z,73.38
2022-12-22T13:41:27.430Z,74.32
2022-12-22T13:44:09.589Z,74.47
2022-12-22T13:49:58.708Z,71.68
2022-12-22T13:52:27.370Z,80.85
2022-12-22T13:55:01.497Z,64.60
2022-12-22T13:57:38.904Z,66.72
2022-12-22T14:00:22.571Z,72.55
2022-12-22T14:02:59.125Z,68.45
2022-12-22T14:05:41.931Z,80.60
2022-12-22T14:08:31.444Z,84.35
2022-12-22T14:11:07.462Z,70.45
2022-12-22T14:13:54.585Z,69.97
2022-12-22T14:16:27.468Z,64.15
2022-12-22T14:19:04.224Z,65.07
2022-12-22T14:21:38.413Z,62.13
2022-12-22T14:24:29.253Z,82.28
2022-12-22T14:27:12.186Z,80.82
2022-12-22T14:29:45.349Z,75.38
2022-12-22T14:32:52.342Z,67.95
2022-12-22T14:36:02.558Z,65.55
2022-12-22T14:38:51.158Z,68.82
2022-12-22T14:41:41.570Z,66.03
2022-12-22T14:44:28.499Z,62.97
2022-12-22T14:47:17.831Z,66.95
2022-12-22T14:49:55.105Z,69.95
2022-12-22T14:52:36.328Z,69.05
2022-12-22T14:55:24.106Z,64.18
2022-12-22T14:58:09.172Z,66.03
2022-12-22T15:00:46.926Z,67.88
2022-12-22T15:03:38.626Z,73.47
2022-12-22T15:06:32.744Z,77.93
2022-12-22T15:09:47.225Z,75.97
2022-12-22T15:15:15.687Z,69.40
2022-12-22T15:17:53.677Z,73.72
2022-12-22T15:20:31.200Z,75.93
2022-12-22T15:23:17.214Z,70.80
2022-12-22T15:25:53.378Z,69.28
2022-12-22T15:28:28.538Z,77.05
2022-12-22T15:31:08.204Z,75.27
2022-12-22T15:33:44.803Z,73.07
2022-12-22T15:36:18.300Z,71.65
2022-12-22T15:38:50.561Z,73.20
2022-12-22T15:41:36.967Z,73.65
2022-12-22T15:44:12.675Z,73.63
2022-12-22T15:46:54.430Z,72.82
2022-12-22T15:49:34.717Z,81.47
2022-12-22T15:52:14.904Z,72.10
2022-12-22T15:54:52.949Z,75.10
2022-12-22T15:57:34.026Z,74.30
2022-12-22T16:00:10.225Z,77.60
2022-12-22T16:02:48.693Z,74.40
2022-12-22T16:05:18.952Z,69.28
2022-12-22T16:07:51.905Z,73.20
2022-12-22T16:10:42.399Z,70.32
2022-12-22T16:13:25.297Z,69.80
2022-12-22T16:15:58.584Z,70.03
2022-12-22T16:18:34.336Z,69.55
2022-12-22T16:21:29.698Z,67.40
2022-12-22T16:24:04.121Z,74.80
2022-12-22T16:26:39.499Z,72.78
2022-12-22T16:29:21.077Z,83.70
2022-12-22T16:31:56.589Z,84.50
2022-12-22T16:34:39.471Z,95.53
2022-12-22T16:37:12.733Z,81.18
2022-12-22T16:39:55.602Z,96.32
2022-12-22T16:45:49.372Z,77.35
2022-12-22T16:48:28.760Z,72.80
2022-12-22T16:51:06.428Z,76.53
2022-12-22T16:53:38.859Z,74.30
2022-12-22T16:56:28.254Z,73.20
2022-12-22T16:59:01.026Z,72.22
2022-12-22T17:01:40.447Z,72.80
2022-12-22T17:04:23.931Z,74.75
2022-12-22T17:06:58.569Z,65.70
2022-12-22T17:09:40.646Z,72.25
2022-12-22T17:12:26.894Z,70.18
2022-12-22T17:15:04.787Z,72.05
2022-12-22T17:17:42.683Z,66.57
2022-12-22T17:20:31.839Z,68.22
2022-12-22T17:23:12.669Z,67.18
2022-12-22T17:25:47.681Z,67.60
2022-12-22T17:28:25.148Z,75.65
2022-12-22T17:31:00.157Z,68.05
2022-12-22T17:33:32.862Z,67.20
2022-12-22T17:36:03.887Z,66.93
2022-12-22T17:38:37.054Z,68.13
2022-12-22T17:41:16.980Z,69.15
2022-12-22T17:43:55.079Z,65.60
2022-12-22T17:46:33.516Z,71.68
2022-12-22T17:49:13.302Z,62.17
2022-12-22T17:51:50.770Z,69.40
2022-12-22T17:54:32.050Z,71.68
2022-12-22T17:57:16.121Z,64.22
2022-12-22T17:59:45.828Z,71.25
2022-12-22T18:02:29.952Z,71.00
2022-12-22T18:05:10.886Z,69.15
2022-12-22T18:07:50.385Z,68.55
2022-12-22T18:10:55.379Z,67.25
2022-12-22T18:13:36.220Z,68.30
2022-12-22T18:16:10.379Z,70.22
2022-12-22T18:18:54.675Z,71.70
2022-12-22T18:21:28.109Z,76.25
2022-12-22T18:24:05.865Z,73.22
2022-12-22T18:26:56.583Z,71.68
2022-12-22T18:29:38.280Z,74.22
2022-12-22T18:32:22.872Z,74.13
2022-12-22T18:35:04.630Z,74.88
2022-12-22T18:37:42.847Z,73.55
2022-12-22T18:40:28.664Z,75.47
2022-12-22T18:43:11.776Z,76.90
2022-12-22T18:46:04.528Z,76.47
2022-12-22T18:48:43.107Z,74.65
2022-12-22T18:51:39.603Z,77.85
2022-12-22T18:54:37.079Z,83.03
2022-12-22T18:57:29.352Z,74.15
2022-12-22T19:00:13.528Z,76.38
2022-12-22T19:02:54.844Z,79.30
2022-12-22T19:05:31.213Z,76.78
2022-12-22T19:08:06.857Z,74.72
2022-12-22T19:11:10.048Z,79.35
2022-12-22T19:13:52.746Z,77.22
2022-12-22T19:16:32.874Z,74.88
2022-12-22T19:19:15.432Z,74.40
2022-12-22T19:21:53.831Z,74.15
2022-12-22T19:24:34.984Z,72.13
2022-12-22T19:27:28.397Z,72.05
2022-12-22T19:30:08.545Z,72.95
2022-12-22T19:32:52.212Z,72.85
2022-12-22T19:35:29.493Z,75.35
2022-12-22T19:38:26.419Z,80.50
2022-12-22T19:41:09.896Z,82.15
2022-12-22T19:44:08.635Z,83.05
2022-12-22T19:46:50.334Z,82.25
2022-12-22T19:49:43.180Z,84.88
2022-12-22T19:52:20.561Z,81.47
2022-12-22T19:55:04.390Z,82.53
2022-12-22T20:00:20.646Z,82.65
2022-12-22T20:05:38.387Z,79.38
2022-12-22T20:08:17.405Z,77.47
2022-12-22T20:11:06.352Z,76.80
2022-12-22T20:13:53.460Z,83.15
2022-12-22T20:16:40.234Z,70.57
2022-12-22T20:19:29.511Z,71.88
2022-12-22T20:22:10.124Z,74.15
2022-12-22T20:24:54.869Z,83.23
2022-12-22T20:27:38.545Z,74.93
2022-12-22T20:30:32.769Z,74.90
2022-12-22T20:36:26.474Z,74.13
2022-12-22T20:39:04.795Z,69.10
2022-12-22T20:41:52.908Z,69.47
2022-12-22T20:44:31.843Z,71.75
2022-12-22T20:47:23.649Z,75.03
2022-12-22T20:50:22.028Z,71.53
2022-12-22T20:53:02.683Z,68.32
2022-12-22T20:55:42.995Z,79.25
2022-12-22T20:58:32.671Z,78.95
2022-12-22T21:01:17.004Z,77.38
2022-12-22T21:04:20.033Z,77.63
2022-12-22T21:07:07.153Z,82.13
2022-12-22T21:09:48.452Z,83.60
2022-12-22T21:12:32.235Z,79.50
2022-12-22T21:15:18.185Z,76.45
2022-12-22T21:20:57.804Z,75.85
2022-12-22T21:23:32.794Z,79.95
2022-12-22T21:26:18.894Z,79.95
2022-12-22T21:29:02.292Z,80.80
2022-12-22T21:31:52.394Z,81.03
2022-12-22T21:34:30.373Z,75.85
2022-12-22T21:37:20.078Z,79.07
2022-12-22T21:40:12.192Z,77.30
2022-12-22T21:42:56.788Z,73.63
2022-12-22T21:45:43.958Z,72.00
2022-12-22T21:48:25.579Z,77.82
2022-12-22T21:51:03.705Z,75.53
2022-12-22T21:53:44.886Z,73.53
2022-12-22T21:56:32.205Z,74.03
2022-12-22T21:59:11.728Z,80.88
2022-12-22T22:01:53.599Z,84.90
2022-12-22T22:04:45.304Z,81.22
2022-12-22T22:07:28.342Z,94.22
2022-12-22T22:10:13.489Z,99.43
2022-12-22T22:12:51.700Z,88.18
2022-12-22T22:15:36.971Z,79.72
2022-12-22T22:18:17.409Z,74.55
2022-12-22T22:21:09.801Z,73.75
2022-12-22T22:24:01.682Z,95.28
2022-12-22T22:26:40.387Z,85.95
2022-12-22T22:29:20.718Z,85.40
2022-12-22T22:31:55.695Z,101.53
2022-12-22T22:34:41.389Z,108.13
2022-12-22T22:37:21.640Z,101.82
2022-12-22T22:40:04.410Z,94.13
2022-12-22T22:42:45.395Z,88.95
2022-12-22T22:45:39.324Z,83.07
2022-12-22T22:48:31.761Z,79.68
2022-12-22T22:51:14.939Z,82.50
2022-12-22T22:53:50.641Z,79.05
2022-12-22T22:56:35.514Z,74.05
2022-12-22T22:59:32.822Z,78.25
2022-12-22T23:02:19.290Z,80.45
2022-12-22T23:04:57.962Z,81.07
2022-12-22T23:07:34.195Z,83.93
2022-12-22T23:10:25.396Z,82.20
2022-12-22T23:13:15.349Z,79.60
2022-12-22T23:16:03.737Z,75.07
2022-12-22T23:18:42.731Z,70.72
2022-12-22T23:21:30.255Z,83.05
2022-12-22T23:24:09.365Z,77.22
2022-12-22T23:26:53.424Z,75.70
2022-12-22T23:29:45.786Z,133.02
2022-12-22T23:32:26.149Z,74.95
2022-12-22T23:35:06.913Z,75.50
2022-12-22T23:37:44.904Z,73.30
2022-12-22T23:40:50.965Z,72.75
2022-12-22T23:43:31.243Z,68.00
2022-12-22T23:46:29.304Z,80.03
2022-12-22T23:49:04.496Z,77.28
2022-12-22T23:51:57.261Z,73.82
2022-12-22T23:54:41.055Z,81.93
2022-12-22T23:57:32.184Z,76.45
